Time;durP1;ratioP1;P1;durP2;ratioP2;P2;SDS_P1;SDS_P2;PMS_P1;PMS_P2;Temp;Humidity;BMP_temperature;BMP_pressure;BME280_temperature;BME280_humidity;BME280_pressure;Samples;Min_cycle;Max_cycle;Signal;HPM_P1;HPM_P2
2024/01/25 00:01:10;;;;;;;15.88;3.65;;;5.50;99.90;;;;;;5049769;28;20467;-73
2024/01/25 00:03:36;;;;;;;47.95;16.60;;;5.50;99.90;;;;;;5053094;28;20059;-73
2024/01/25 00:06:02;;;;;;;8.57;2.53;;;5.60;99.90;;;;;;5053208;28;20025;-78
2024/01/25 00:08:28;;;;;;;14.85;5.13;;;5.60;99.90;;;;;;5052887;28;20010;-78
2024/01/25 00:10:53;;;;;;;22.63;6.53;;;5.60;99.90;;;;;;5051912;28;20028;-77
2024/01/25 00:13:19;;;;;;;10.02;4.03;;;5.60;99.90;;;;;;5053197;28;20044;-74
2024/01/25 00:15:45;;;;;;;14.13;5.63;;;5.60;99.90;;;;;;5051353;28;20047;-79
2024/01/25 00:18:10;;;;;;;10.88;2.67;;;5.60;99.90;;;;;;5051735;28;20072;-74
2024/01/25 00:20:36;;;;;;;10.68;2.05;;;5.50;99.90;;;;;;5051503;28;20044;-79
2024/01/25 00:23:02;;;;;;;7.18;2.60;;;5.60;99.90;;;;;;5051883;28;20032;-79
2024/01/25 00:25:27;;;;;;;28.65;9.50;;;5.70;99.90;;;;;;5051584;28;20018;-78
2024/01/25 00:27:53;;;;;;;14.70;5.30;;;5.60;99.90;;;;;;5039329;28;20464;-74
2024/01/25 00:30:19;;;;;;;9.52;3.65;;;5.60;99.90;;;;;;5052427;28;20029;-79
2024/01/25 00:32:44;;;;;;;13.85;5.40;;;5.60;99.90;;;;;;5050906;28;20119;-77
2024/01/25 00:35:13;;;;;;;7.43;3.25;;;5.70;99.90;;;;;;5051340;28;20079;-74
2024/01/25 00:37:39;;;;;;;8.95;2.72;;;5.60;99.90;;;;;;5051778;28;20394;-74
2024/01/25 00:40:06;;;;;;;11.63;3.53;;;5.60;99.90;;;;;;5051546;28;20108;-73
2024/01/25 00:42:44;;;;;;;5.55;3.47;;;5.60;99.90;;;;;;5053332;28;20013;-78
2024/01/25 00:45:11;;;;;;;9.50;3.40;;;5.70;99.90;;;;;;5051258;28;20048;-77
2024/01/25 00:47:37;;;;;;;7.53;2.53;;;5.60;99.90;;;;;;5040752;28;20029;-74
2024/01/25 00:50:04;;;;;;;11.77;3.42;;;5.60;99.90;;;;;;5051897;28;20017;-73
2024/01/25 00:52:29;;;;;;;6.45;2.38;;;5.60;99.90;;;;;;5042182;28;20029;-78
2024/01/25 00:54:55;;;;;;;7.63;3.33;;;5.50;99.90;;;;;;5051795;28;20026;-78
2024/01/25 00:57:21;;;;;;;12.65;4.45;;;5.50;99.90;;;;;;5052717;28;20021;-74
2024/01/25 00:59:47;;;;;;;11.18;2.65;;;5.50;99.90;;;;;;5039337;28;20475;-74
2024/01/25 01:02:13;;;;;;;8.93;3.10;;;5.50;99.90;;;;;;5058582;28;20094;-78
2024/01/25 01:04:40;;;;;;;15.40;5.43;;;5.50;99.90;;;;;;5066944;28;20051;-74
2024/01/25 01:07:06;;;;;;;26.77;12.65;;;5.50;99.90;;;;;;5069186;28;20394;-73
2024/01/25 01:09:32;;;;;;;12.55;4.93;;;5.60;99.90;;;;;;5068570;28;20051;-78
2024/01/25 01:11:58;;;;;;;9.13;3.40;;;5.50;99.90;;;;;;5068103;28;20061;-78
2024/01/25 01:14:23;;;;;;;5.28;2.40;;;5.50;99.90;;;;;;5067284;28;20545;-74
2024/01/25 01:16:50;;;;;;;12.85;3.95;;;5.50;99.90;;;;;;5071123;28;20108;-74
2024/01/25 01:19:16;;;;;;;14.43;5.20;;;5.60;99.90;;;;;;5070434;28;20072;-78
2024/01/25 01:21:43;;;;;;;12.30;3.40;;;5.60;99.90;;;;;;5058626;28;20114;-74
2024/01/25 01:24:12;;;;;;;6.70;2.13;;;5.60;99.90;;;;;;5055261;28;20052;-73
2024/01/25 01:26:38;;;;;;;12.20;3.03;;;5.60;99.90;;;;;;5055167;28;20372;-74
2024/01/25 01:29:04;;;;;;;21.40;7.65;;;5.60;99.90;;;;;;5060727;28;20024;-73
2024/01/25 01:31:30;;;;;;;13.60;4.60;;;5.60;99.90;;;;;;5061871;28;20048;-78
2024/01/25 01:33:55;;;;;;;36.00;11.23;;;5.60;99.90;;;;;;5062580;28;20021;-73
2024/01/25 01:36:21;;;;;;;12.18;5.65;;;5.50;99.90;;;;;;5055216;28;20509;-78
2024/01/25 01:38:47;;;;;;;17.73;9.00;;;5.40;99.90;;;;;;5055492;28;20021;-78
2024/01/25 01:41:13;;;;;;;14.40;6.50;;;5.30;99.90;;;;;;5055443;28;20021;-74
2024/01/25 01:43:39;;;;;;;13.02;5.90;;;5.10;99.90;;;;;;5055290;28;20087;-78
2024/01/25 01:46:11;;;;;;;5.60;2.92;;;4.90;99.90;;;;;;5054510;28;20021;-78
2024/01/25 01:48:39;;;;;;;16.63;4.07;;;4.70;99.90;;;;;;5066679;28;20014;-79
2024/01/25 01:51:05;;;;;;;13.93;6.20;;;4.60;99.90;;;;;;5055269;28;20029;-74
2024/01/25 01:53:33;;;;;;;7.75;2.67;;;4.50;99.90;;;;;;5054115;28;20025;-78
2024/01/25 01:55:59;;;;;;;7.55;2.53;;;4.40;99.90;;;;;;5053833;28;20036;-73
2024/01/25 01:58:27;;;;;;;9.88;2.60;;;4.40;99.90;;;;;;5069502;28;20425;-73
2024/01/25 02:00:54;;;;;;;13.50;4.32;;;4.40;99.90;;;;;;5073225;28;20020;-78
2024/01/25 02:03:19;;;;;;;5.88;2.60;;;4.50;99.90;;;;;;5057519;28;20495;-74
2024/01/25 02:05:46;;;;;;;6.03;2.65;;;4.60;99.90;;;;;;5054709;28;20024;-74
2024/01/25 02:08:12;;;;;;;8.35;3.58;;;4.50;99.90;;;;;;5068529;28;20116;-78
2024/01/25 02:10:38;;;;;;;16.33;4.05;;;4.60;99.90;;;;;;5074201;28;20021;-74
2024/01/25 02:13:04;;;;;;;9.20;2.78;;;4.60;99.90;;;;;;5071655;28;20033;-79
2024/01/25 02:15:30;;;;;;;10.77;3.25;;;4.70;99.90;;;;;;5054658;28;20378;-75
2024/01/25 02:17:56;;;;;;;10.52;2.20;;;4.90;99.90;;;;;;5069725;28;20071;-78
2024/01/25 02:20:21;;;;;;;9.18;3.28;;;4.90;99.90;;;;;;5074290;28;20070;-77
2024/01/25 02:22:47;;;;;;;5.82;2.20;;;5.00;99.90;;;;;;5070355;28;20025;-74
2024/01/25 02:25:13;;;;;;;5.75;2.40;;;5.00;99.90;;;;;;5053357;28;20039;-78
2024/01/25 02:27:38;;;;;;;7.15;1.92;;;5.00;99.90;;;;;;5055051;28;20044;-78
2024/01/25 02:30:07;;;;;;;11.25;2.42;;;5.00;99.90;;;;;;5053473;28;20021;-74
2024/01/25 02:32:33;;;;;;;13.98;3.88;;;5.00;99.90;;;;;;5066079;28;20025;-77
2024/01/25 02:34:59;;;;;;;11.80;2.75;;;5.00;99.90;;;;;;5061614;28;20497;-73
2024/01/25 02:37:25;;;;;;;12.20;2.60;;;5.00;99.90;;;;;;5073674;28;20024;-73
2024/01/25 02:39:52;;;;;;;11.32;2.92;;;5.00;99.90;;;;;;5073846;28;20122;-78
2024/01/25 02:42:17;;;;;;;11.82;2.25;;;5.10;99.90;;;;;;5057343;28;20017;-78
2024/01/25 02:44:43;;;;;;;9.25;2.92;;;5.10;99.90;;;;;;5052869;28;20037;-77
2024/01/25 02:47:09;;;;;;;7.68;2.35;;;5.10;99.90;;;;;;5052955;28;20028;-73
2024/01/25 02:49:35;;;;;;;9.02;2.47;;;5.20;99.90;;;;;;5052627;28;20044;-73
2024/01/25 02:52:01;;;;;;;18.23;5.15;;;5.20;99.90;;;;;;5067066;28;20526;-73
2024/01/25 02:54:27;;;;;;;12.85;3.15;;;5.20;99.90;;;;;;5061075;28;20027;-72
2024/01/25 02:56:53;;;;;;;8.23;2.63;;;5.10;99.90;;;;;;5073130;28;20047;-77
2024/01/25 02:59:18;;;;;;;9.25;2.72;;;5.10;99.90;;;;;;5065454;28;20013;-78
2024/01/25 03:01:45;;;;;;;7.93;2.65;;;5.10;99.90;;;;;;5054856;28;20053;-73
2024/01/25 03:04:11;;;;;;;16.63;2.63;;;5.00;99.90;;;;;;5073409;28;20563;-78
2024/01/25 03:06:37;;;;;;;10.00;2.55;;;4.90;99.90;;;;;;5071853;28;20024;-77
2024/01/25 03:09:05;;;;;;;7.97;2.20;;;4.90;99.90;;;;;;5072026;28;20012;-78
2024/01/25 03:11:31;;;;;;;7.63;2.88;;;4.90;99.90;;;;;;5071073;28;20107;-78
2024/01/25 03:13:57;;;;;;;8.32;2.30;;;5.00;99.90;;;;;;5073276;28;20523;-78
2024/01/25 03:16:23;;;;;;;9.07;3.83;;;4.90;99.90;;;;;;5057450;28;20023;-74
2024/01/25 03:18:48;;;;;;;13.02;5.03;;;4.80;99.90;;;;;;5051847;28;20056;-78
2024/01/25 03:21:14;;;;;;;10.90;4.72;;;4.80;99.90;;;;;;5053963;28;20028;-79
2024/01/25 03:23:40;;;;;;;6.68;2.38;;;4.80;99.90;;;;;;5054400;28;20124;-74
2024/01/25 03:26:05;;;;;;;12.60;3.60;;;4.80;99.90;;;;;;5054579;28;20509;-74
2024/01/25 03:28:34;;;;;;;7.82;2.58;;;4.70;99.90;;;;;;5054472;28;20510;-74
2024/01/25 03:31:00;;;;;;;4.68;2.15;;;4.60;99.90;;;;;;5052862;28;20036;-77
2024/01/25 03:33:26;;;;;;;7.28;2.97;;;4.60;99.90;;;;;;5053414;28;20462;-78
2024/01/25 03:35:51;;;;;;;8.00;2.70;;;4.50;99.90;;;;;;5051907;28;20028;-78
2024/01/25 03:38:17;;;;;;;13.90;3.05;;;4.40;99.90;;;;;;5060727;28;20013;-73
2024/01/25 03:40:44;;;;;;;12.85;2.50;;;4.40;99.90;;;;;;5059300;28;20475;-78
2024/01/25 03:43:10;;;;;;;9.50;2.70;;;4.30;99.90;;;;;;5071423;28;20355;-78
2024/01/25 03:45:35;;;;;;;10.15;2.58;;;4.20;99.90;;;;;;5069793;28;20123;-78
2024/01/25 03:48:01;;;;;;;13.63;3.80;;;4.20;99.90;;;;;;5053419;28;20032;-74
2024/01/25 03:50:27;;;;;;;10.02;3.42;;;4.20;99.90;;;;;;5053032;28;20035;-79
2024/01/25 03:52:53;;;;;;;14.27;2.88;;;4.20;99.90;;;;;;5053296;28;20025;-79
2024/01/25 03:55:18;;;;;;;10.10;3.10;;;4.20;99.90;;;;;;5052174;28;20023;-78
2024/01/25 03:57:44;;;;;;;14.38;3.05;;;4.20;99.90;;;;;;5053470;28;20108;-79
2024/01/25 04:00:11;;;;;;;8.55;2.83;;;4.10;99.90;;;;;;5052577;28;20512;-74
2024/01/25 04:02:36;;;;;;;7.35;2.33;;;4.20;99.90;;;;;;5053575;28;20021;-78
2024/01/25 04:05:03;;;;;;;9.48;3.03;;;4.20;99.90;;;;;;5053480;28;20044;-79
2024/01/25 04:07:28;;;;;;;10.90;3.00;;;4.20;99.90;;;;;;5051999;28;20013;-74
2024/01/25 04:09:54;;;;;;;7.03;2.40;;;4.10;99.90;;;;;;5053243;28;20028;-79
2024/01/25 04:12:20;;;;;;;7.72;2.70;;;4.20;99.90;;;;;;5052944;28;20017;-79
2024/01/25 04:14:45;;;;;;;7.65;3.38;;;4.10;99.90;;;;;;5051500;28;20378;-79
2024/01/25 04:17:11;;;;;;;8.27;2.72;;;4.10;99.90;;;;;;5051380;28;20389;-74
2024/01/25 04:19:37;;;;;;;16.85;5.50;;;4.10;99.90;;;;;;5068176;28;21322;-74
2024/01/25 04:22:02;;;;;;;7.47;2.90;;;4.10;99.90;;;;;;5071304;28;20016;-74
2024/01/25 04:24:28;;;;;;;14.93;3.60;;;4.20;99.90;;;;;;5071886;28;20075;-74
2024/01/25 04:26:54;;;;;;;10.50;3.03;;;4.20;99.90;;;;;;5070855;28;20060;-79
2024/01/25 04:29:19;;;;;;;7.65;3.72;;;4.20;99.90;;;;;;5068585;28;20040;-79
2024/01/25 04:31:46;;;;;;;9.32;2.92;;;4.30;99.90;;;;;;5051892;28;20077;-79
2024/01/25 04:34:13;;;;;;;7.45;2.25;;;4.40;99.90;;;;;;5061382;28;20044;-79
2024/01/25 04:36:39;;;;;;;9.52;2.78;;;4.50;99.90;;;;;;5068429;28;20024;-74
2024/01/25 04:39:05;;;;;;;14.13;2.42;;;4.60;99.90;;;;;;5065803;28;20035;-79
2024/01/25 04:41:30;;;;;;;9.15;2.65;;;4.60;99.90;;;;;;5066780;28;20012;-79
2024/01/25 04:43:56;;;;;;;6.18;2.95;;;4.60;99.90;;;;;;5067425;28;20036;-74
2024/01/25 04:46:22;;;;;;;11.13;2.90;;;4.70;99.90;;;;;;5066888;28;20023;-79
2024/01/25 04:48:48;;;;;;;11.43;2.17;;;4.80;99.90;;;;;;5067098;28;20029;-78
2024/01/25 04:51:19;;;;;;;10.18;2.97;;;4.90;99.90;;;;;;5066986;28;20044;-74
2024/01/25 04:53:45;;;;;;;8.67;2.33;;;4.90;99.90;;;;;;5065041;28;20036;-74
2024/01/25 04:56:11;;;;;;;9.07;3.38;;;4.80;99.90;;;;;;5050113;28;20474;-74
2024/01/25 04:58:37;;;;;;;7.38;2.22;;;4.90;99.90;;;;;;5068963;28;20036;-73
2024/01/25 05:01:02;;;;;;;7.85;2.50;;;4.90;99.90;;;;;;5073441;28;20024;-78
2024/01/25 05:03:28;;;;;;;15.00;4.03;;;4.90;99.90;;;;;;5070664;28;20051;-74
2024/01/25 05:05:53;;;;;;;7.72;2.97;;;5.00;99.90;;;;;;5072707;28;20512;-74
2024/01/25 05:08:19;;;;;;;14.43;2.78;;;5.00;99.90;;;;;;5069581;28;20100;-73
2024/01/25 05:10:45;;;;;;;12.93;3.63;;;5.00;99.90;;;;;;5072100;28;20375;-78
2024/01/25 05:13:10;;;;;;;15.07;2.60;;;4.90;99.90;;;;;;5068274;28;20032;-74
2024/01/25 05:15:36;;;;;;;11.50;4.93;;;4.90;99.90;;;;;;5071913;28;20021;-79
2024/01/25 05:18:02;;;;;;;20.58;5.68;;;4.90;99.90;;;;;;5067900;28;20049;-79
2024/01/25 05:20:32;;;;;;;41.45;14.48;;;4.90;99.90;;;;;;5070741;28;20347;-80
2024/01/25 05:22:58;;;;;;;17.33;5.35;;;4.90;99.90;;;;;;5067377;28;20036;-75
2024/01/25 05:25:26;;;;;;;37.35;12.93;;;4.90;99.90;;;;;;5070819;28;20035;-80
2024/01/25 05:27:52;;;;;;;120.32;37.70;;;4.90;99.90;;;;;;5057364;28;20087;-74
2024/01/25 05:30:18;;;;;;;28.63;9.90;;;4.90;99.90;;;;;;5063690;28;20020;-80
2024/01/25 05:32:44;;;;;;;88.68;30.35;;;4.80;99.90;;;;;;5057486;28;20078;-75
2024/01/25 05:35:09;;;;;;;38.58;11.48;;;4.80;99.90;;;;;;5075191;28;20095;-79
2024/01/25 05:37:35;;;;;;;16.48;5.90;;;4.80;99.90;;;;;;5071897;28;20021;-78
2024/01/25 05:40:01;;;;;;;20.10;5.47;;;4.80;99.90;;;;;;5055592;28;20029;-73
2024/01/25 05:42:26;;;;;;;16.35;6.20;;;4.70;99.90;;;;;;5055409;28;20413;-74
2024/01/25 05:44:52;;;;;;;20.88;5.30;;;4.80;99.90;;;;;;5054212;28;20553;-78
2024/01/25 05:47:18;;;;;;;22.15;6.40;;;4.70;99.90;;;;;;5054442;28;20040;-79
2024/01/25 05:49:44;;;;;;;39.00;11.25;;;4.70;99.90;;;;;;5055269;28;20040;-75
2024/01/25 05:52:10;;;;;;;104.70;30.17;;;4.60;99.90;;;;;;5062906;28;20017;-79
2024/01/25 05:54:35;;;;;;;25.83;8.30;;;4.60;99.90;;;;;;5054169;28;20112;-79
2024/01/25 05:57:01;;;;;;;11.88;4.43;;;4.60;99.90;;;;;;5058812;28;20008;-79
2024/01/25 05:59:27;;;;;;;33.63;7.78;;;4.60;99.90;;;;;;5056224;28;20025;-74
2024/01/25 06:01:52;;;;;;;10.57;3.17;;;4.50;99.90;;;;;;5057259;28;20051;-74
2024/01/25 06:04:19;;;;;;;10.63;3.90;;;4.50;99.90;;;;;;5056215;28;20090;-79
2024/01/25 06:06:44;;;;;;;28.25;8.75;;;4.50;99.90;;;;;;5058952;28;20027;-79
2024/01/25 06:09:10;;;;;;;22.30;8.32;;;4.40;99.90;;;;;;5053848;28;20025;-79
2024/01/25 06:11:36;;;;;;;16.08;3.92;;;4.50;99.90;;;;;;5054573;28;20016;-74
2024/01/25 06:14:02;;;;;;;45.30;12.68;;;4.40;99.90;;;;;;5055451;28;20387;-79
2024/01/25 06:16:27;;;;;;;21.77;8.35;;;4.40;99.90;;;;;;5055180;28;20016;-78
2024/01/25 06:18:53;;;;;;;18.17;5.07;;;4.40;99.90;;;;;;5071525;28;20055;-74
2024/01/25 06:21:18;;;;;;;16.15;5.63;;;4.30;99.90;;;;;;5069776;28;20056;-74
2024/01/25 06:23:44;;;;;;;13.38;3.47;;;4.30;99.90;;;;;;5063589;28;20040;-74
2024/01/25 06:26:10;;;;;;;30.65;7.05;;;4.30;99.90;;;;;;5065344;28;20047;-73
2024/01/25 06:28:35;;;;;;;15.38;6.55;;;4.30;99.90;;;;;;5064250;28;20023;-79
2024/01/25 06:31:01;;;;;;;46.75;18.77;;;4.40;99.90;;;;;;5056865;28;20059;-78
2024/01/25 06:33:27;;;;;;;150.10;49.67;;;4.40;99.90;;;;;;5054235;28;20046;-73
2024/01/25 06:35:54;;;;;;;114.13;41.00;;;4.40;99.90;;;;;;5054467;28;20017;-73
2024/01/25 06:38:20;;;;;;;412.17;144.25;;;4.30;99.90;;;;;;5054430;28;20039;-78
2024/01/25 06:40:46;;;;;;;273.02;92.07;;;4.30;99.90;;;;;;5059312;28;20123;-79
2024/01/25 06:43:11;;;;;;;548.92;189.65;;;4.30;99.90;;;;;;5053207;28;20059;-76
2024/01/25 06:45:39;;;;;;;363.77;121.03;;;4.20;99.90;;;;;;5065312;28;20027;-75
2024/01/25 06:48:08;;;;;;;123.15;45.15;;;4.20;99.90;;;;;;5071862;28;20466;-75
2024/01/25 06:50:34;;;;;;;723.33;280.55;;;4.10;99.90;;;;;;5068909;28;20013;-81
2024/01/25 06:52:59;;;;;;;425.20;141.82;;;4.00;99.90;;;;;;5071614;28;20432;-75
2024/01/25 06:55:25;;;;;;;235.85;75.93;;;3.90;99.90;;;;;;5068919;28;20017;-75
2024/01/25 06:57:51;;;;;;;287.65;94.25;;;3.90;99.90;;;;;;5071546;28;20025;-75
2024/01/25 07:00:16;;;;;;;155.73;58.97;;;3.90;99.90;;;;;;5053009;28;20070;-75
2024/01/25 07:02:42;;;;;;;67.18;28.10;;;3.80;99.90;;;;;;5060576;28;20028;-74
2024/01/25 07:05:08;;;;;;;60.60;23.00;;;3.80;99.90;;;;;;5068751;28;20027;-81
2024/01/25 07:07:34;;;;;;;66.85;22.15;;;3.70;99.90;;;;;;5061009;28;20027;-75
2024/01/25 07:10:00;;;;;;;104.38;33.95;;;3.70;99.90;;;;;;5068733;28;20017;-75
2024/01/25 07:12:26;;;;;;;133.10;45.40;;;3.70;99.90;;;;;;5070360;28;20013;-80
2024/01/25 07:14:52;;;;;;;69.47;29.25;;;3.60;99.90;;;;;;5069480;28;20025;-79
2024/01/25 07:17:18;;;;;;;81.13;31.80;;;3.50;99.90;;;;;;5065142;28;20025;-81
2024/01/25 07:19:44;;;;;;;112.97;39.30;;;3.50;99.90;;;;;;5065890;28;20518;-80
2024/01/25 07:22:11;;;;;;;47.90;19.77;;;3.40;99.90;;;;;;5068697;28;20485;-80
2024/01/25 07:24:37;;;;;;;77.43;31.42;;;3.40;99.90;;;;;;5055171;28;20037;-80
2024/01/25 07:27:02;;;;;;;45.50;20.92;;;3.40;99.90;;;;;;5052771;28;20028;-83
2024/01/25 07:29:28;;;;;;;82.93;32.03;;;3.40;99.90;;;;;;5060394;28;20025;-75
2024/01/25 07:31:54;;;;;;;34.33;14.70;;;3.40;99.90;;;;;;5051917;28;20045;-74
2024/01/25 07:34:20;;;;;;;34.15;14.50;;;3.30;99.90;;;;;;5057389;28;20110;-74
2024/01/25 07:36:45;;;;;;;19.15;7.47;;;3.40;99.90;;;;;;5051891;28;20482;-74
2024/01/25 07:39:11;;;;;;;113.30;41.78;;;3.40;99.90;;;;;;5053225;28;20029;-74
2024/01/25 07:41:37;;;;;;;24.88;9.60;;;3.40;99.90;;;;;;5049762;28;20029;-75
2024/01/25 07:44:03;;;;;;;22.48;7.35;;;3.40;99.90;;;;;;5052511;28;20037;-74
2024/01/25 07:46:28;;;;;;;16.10;6.80;;;3.40;99.90;;;;;;5054500;28;20021;-75
2024/01/25 07:48:54;;;;;;;22.55;6.50;;;3.40;99.90;;;;;;5052919;28;20051;-75
2024/01/25 07:51:20;;;;;;;13.48;6.07;;;3.40;99.90;;;;;;5053167;28;20035;-74
2024/01/25 07:53:46;;;;;;;28.88;12.63;;;3.50;99.90;;;;;;5052140;28;20025;-75
2024/01/25 07:56:11;;;;;;;62.97;26.90;;;3.40;99.90;;;;;;5058820;28;20036;-85
2024/01/25 07:58:37;;;;;;;23.50;8.95;;;3.50;99.90;;;;;;5067088;28;20060;-84
2024/01/25 08:01:05;;;;;;;28.63;12.93;;;3.50;99.90;;;;;;5050955;28;20039;-84
2024/01/25 08:03:30;;;;;;;40.55;14.48;;;3.50;99.90;;;;;;5057314;28;20024;-83
2024/01/25 08:05:56;;;;;;;21.23;10.32;;;3.50;99.90;;;;;;5053041;28;20036;-83
2024/01/25 08:08:22;;;;;;;41.42;16.40;;;3.50;99.90;;;;;;5053191;28;20560;-74
2024/01/25 08:10:47;;;;;;;29.13;11.32;;;3.50;99.90;;;;;;5052065;28;20057;-75
2024/01/25 08:13:13;;;;;;;41.15;15.07;;;3.50;99.90;;;;;;5053286;28;20070;-76
2024/01/25 08:15:39;;;;;;;30.63;12.63;;;3.50;99.90;;;;;;5050630;28;20021;-76
2024/01/25 08:18:04;;;;;;;35.05;13.10;;;3.50;99.90;;;;;;5052726;28;20080;-76
2024/01/25 08:20:30;;;;;;;40.42;12.93;;;3.50;99.90;;;;;;5051392;28;20555;-75
2024/01/25 08:22:56;;;;;;;37.63;13.90;;;3.50;99.90;;;;;;5060691;28;20044;-81
2024/01/25 08:25:22;;;;;;;11.85;5.93;;;3.50;99.90;;;;;;5065132;28;20017;-75
2024/01/25 08:27:47;;;;;;;31.30;10.85;;;3.50;99.90;;;;;;5066421;28;20040;-81
2024/01/25 08:30:13;;;;;;;15.63;7.55;;;3.50;99.90;;;;;;5059487;28;20017;-74
2024/01/25 08:32:39;;;;;;;14.00;4.38;;;3.50;99.90;;;;;;5056736;28;20017;-81
2024/01/25 08:35:05;;;;;;;12.70;5.00;;;3.50;99.90;;;;;;5066114;28;20028;-81
2024/01/25 08:37:31;;;;;;;13.55;4.60;;;3.60;99.90;;;;;;5076380;28;20086;-82
2024/01/25 08:39:57;;;;;;;16.75;6.47;;;3.60;99.90;;;;;;5077034;28;20028;-75
2024/01/25 08:42:22;;;;;;;11.68;5.00;;;3.60;99.90;;;;;;5073026;28;20426;-81
2024/01/25 08:44:51;;;;;;;22.65;8.52;;;3.70;99.90;;;;;;5055123;28;20033;-80
2024/01/25 08:47:19;;;;;;;31.55;12.35;;;3.70;99.90;;;;;;5054464;28;20085;-79
2024/01/25 08:49:45;;;;;;;19.77;6.03;;;3.70;99.90;;;;;;5066891;28;20489;-76
2024/01/25 08:52:11;;;;;;;25.55;7.88;;;3.70;99.90;;;;;;5065961;28;20059;-75
2024/01/25 08:54:37;;;;;;;35.03;13.18;;;3.70;99.90;;;;;;5060414;28;20502;-76
2024/01/25 08:57:06;;;;;;;18.48;6.05;;;3.80;99.90;;;;;;5064470;28;20021;-82
2024/01/25 08:59:35;;;;;;;16.05;6.80;;;3.80;99.90;;;;;;5067364;28;20103;-80
2024/01/25 09:02:00;;;;;;;23.58;10.32;;;3.80;99.90;;;;;;5063148;28;20104;-75
2024/01/25 09:04:26;;;;;;;19.65;6.50;;;3.80;99.90;;;;;;5067456;28;20469;-82
2024/01/25 09:06:52;;;;;;;13.50;5.53;;;3.80;99.90;;;;;;5062472;28;20422;-74
2024/01/25 09:09:17;;;;;;;34.78;14.70;;;3.90;99.90;;;;;;5056354;28;20053;-81
2024/01/25 09:11:43;;;;;;;8.63;4.72;;;3.90;99.90;;;;;;5052213;28;20028;-75
2024/01/25 09:14:09;;;;;;;19.42;7.38;;;3.90;99.90;;;;;;5053676;28;20021;-75
2024/01/25 09:16:37;;;;;;;20.30;5.22;;;3.90;99.90;;;;;;5051033;28;20021;-75
2024/01/25 09:19:02;;;;;;;28.83;8.57;;;4.00;99.90;;;;;;5052492;28;20051;-75
2024/01/25 09:21:28;;;;;;;24.35;9.70;;;4.10;99.90;;;;;;5051709;28;20021;-76
2024/01/25 09:23:54;;;;;;;15.90;5.55;;;4.10;99.90;;;;;;5053078;28;20037;-76
2024/01/25 09:26:19;;;;;;;21.30;6.72;;;4.20;99.90;;;;;;5051259;28;20020;-75
2024/01/25 09:28:45;;;;;;;21.83;8.80;;;4.30;99.90;;;;;;5051816;28;20099;-75
2024/01/25 09:31:11;;;;;;;21.67;7.78;;;4.40;99.90;;;;;;5050387;28;20087;-75
2024/01/25 09:33:36;;;;;;;14.98;4.95;;;4.40;99.90;;;;;;5049344;28;20071;-75
2024/01/25 09:36:02;;;;;;;16.83;6.50;;;4.50;99.90;;;;;;5050028;28;20017;-74
2024/01/25 09:38:28;;;;;;;32.15;11.15;;;4.50;99.90;;;;;;5053091;28;20032;-81
2024/01/25 09:40:54;;;;;;;18.13;6.43;;;4.50;99.90;;;;;;5059708;28;20107;-75
2024/01/25 09:43:22;;;;;;;9.20;5.13;;;4.50;99.90;;;;;;5067369;28;20036;-76
2024/01/25 09:45:56;;;;;;;29.85;7.80;;;4.50;99.90;;;;;;5063384;28;20113;-81
2024/01/25 09:48:22;;;;;;;13.85;6.00;;;4.50;99.90;;;;;;5055311;28;20478;-76
2024/01/25 09:50:48;;;;;;;17.38;6.90;;;4.60;99.90;;;;;;5056831;28;20028;-82
2024/01/25 09:53:24;;;;;;;17.65;5.97;;;4.60;99.90;;;;;;5055022;28;20489;-82
2024/01/25 09:56:03;;;;;;;28.27;12.15;;;4.60;99.90;;;;;;5055243;28;20474;-83
2024/01/25 09:58:43;;;;;;;25.20;12.98;;;4.60;99.90;;;;;;5056394;28;20019;-77
2024/01/25 10:01:10;;;;;;;13.73;5.05;;;4.50;99.90;;;;;;5056764;28;20033;-76
2024/01/25 10:03:36;;;;;;;18.48;6.20;;;4.50;99.90;;;;;;5062366;28;20183;-77
2024/01/25 10:06:03;;;;;;;15.10;6.82;;;4.50;99.90;;;;;;5062544;28;20028;-77
2024/01/25 10:08:29;;;;;;;16.63;4.75;;;4.50;99.90;;;;;;5061647;28;20013;-76
2024/01/25 10:10:55;;;;;;;13.27;6.85;;;4.50;99.90;;;;;;5062209;28;20100;-82
2024/01/25 10:13:21;;;;;;;11.55;5.60;;;4.50;99.90;;;;;;5060527;28;20159;-82
2024/01/25 10:15:48;;;;;;;16.30;6.95;;;4.50;99.90;;;;;;5062976;28;20036;-77
2024/01/25 10:18:14;;;;;;;19.83;7.97;;;4.60;99.90;;;;;;5060878;28;20056;-77
2024/01/25 10:20:42;;;;;;;17.63;8.35;;;4.60;99.90;;;;;;5065480;28;20466;-81
2024/01/25 10:23:07;;;;;;;19.60;7.32;;;4.70;99.90;;;;;;5058370;28;20044;-81
2024/01/25 10:25:37;;;;;;;20.67;8.35;;;4.70;99.90;;;;;;5059503;28;20013;-82
2024/01/25 10:28:06;;;;;;;18.52;7.40;;;4.70;99.90;;;;;;5053350;28;20021;-82
2024/01/25 10:30:34;;;;;;;11.98;5.75;;;4.70;99.90;;;;;;5054010;28;20047;-82
2024/01/25 10:33:00;;;;;;;17.88;7.05;;;4.70;99.90;;;;;;5052756;28;20390;-82
2024/01/25 10:35:26;;;;;;;18.55;6.57;;;4.70;99.90;;;;;;5052520;28;20017;-81
2024/01/25 10:37:53;;;;;;;24.17;5.78;;;4.70;99.90;;;;;;5054154;28;20044;-77
2024/01/25 10:40:20;;;;;;;16.33;5.53;;;4.70;99.90;;;;;;5061526;28;20024;-81
2024/01/25 10:42:46;;;;;;;14.88;4.38;;;4.80;99.90;;;;;;5054559;28;20543;-77
2024/01/25 10:45:12;;;;;;;14.13;5.13;;;4.90;99.90;;;;;;5053615;28;20029;-77
2024/01/25 10:47:40;;;;;;;15.93;5.70;;;4.80;99.90;;;;;;5051843;28;20021;-82
2024/01/25 10:50:10;;;;;;;22.25;6.40;;;4.90;99.90;;;;;;5053253;28;20025;-77
2024/01/25 10:52:37;;;;;;;21.70;5.15;;;4.90;99.90;;;;;;5036225;28;20170;-77
2024/01/25 10:55:05;;;;;;;25.50;8.73;;;4.90;99.90;;;;;;5053282;28;20025;-77
2024/01/25 10:57:39;;;;;;;17.70;4.82;;;4.90;99.90;;;;;;5054821;28;20009;-78
2024/01/25 11:00:11;;;;;;;10.27;4.30;;;4.90;99.90;;;;;;5055493;28;20025;-77
2024/01/25 11:13:56;;;;;;;9.65;4.45;;;4.80;99.90;;;;;;5080040;27;20864;-81
2024/01/25 11:16:35;;;;;;;17.90;5.05;;;4.90;99.90;;;;;;5067246;27;20393;-82
2024/01/25 11:19:06;;;;;;;11.65;4.65;;;4.90;99.90;;;;;;5120728;27;20026;-82
2024/01/25 11:21:41;;;;;;;10.90;4.72;;;4.80;99.90;;;;;;5104899;27;20036;-77
2024/01/25 11:24:16;;;;;;;17.92;4.60;;;4.90;99.90;;;;;;5052497;27;20080;-82
2024/01/25 11:26:45;;;;;;;15.13;5.78;;;4.80;99.90;;;;;;5046675;27;20021;-77
2024/01/25 11:29:17;;;;;;;18.83;5.88;;;4.80;99.90;;;;;;5118753;27;20026;-83
2024/01/25 11:31:45;;;;;;;14.32;5.15;;;4.80;99.90;;;;;;5070673;27;20048;-83
2024/01/25 11:34:14;;;;;;;15.38;4.60;;;4.80;99.90;;;;;;5047693;27;20025;-83
2024/01/25 11:36:40;;;;;;;11.63;4.55;;;4.80;99.90;;;;;;5062021;27;20458;-77
2024/01/25 11:39:06;;;;;;;15.02;4.30;;;4.70;99.90;;;;;;5089267;27;20080;-77
2024/01/25 11:41:32;;;;;;;15.85;4.95;;;4.70;99.90;;;;;;5085835;27;20508;-74
2024/01/25 11:43:58;;;;;;;16.30;4.88;;;4.70;99.90;;;;;;5037566;27;20025;-76
2024/01/25 11:46:25;;;;;;;24.08;11.57;;;4.70;99.90;;;;;;5093415;27;20023;-76
2024/01/25 11:48:51;;;;;;;26.42;10.85;;;4.70;99.90;;;;;;5043885;28;20018;-76
2024/01/25 11:51:17;;;;;;;10.85;3.80;;;4.60;99.90;;;;;;5044040;28;20029;-76
2024/01/25 11:53:43;;;;;;;14.85;5.97;;;4.70;99.90;;;;;;5047431;27;20018;-77
2024/01/25 11:56:17;;;;;;;22.25;8.02;;;4.60;99.90;;;;;;5066060;27;20017;-76
2024/01/25 11:58:45;;;;;;;18.13;5.93;;;4.60;99.90;;;;;;5097036;27;20059;-76
2024/01/25 12:01:12;;;;;;;24.40;7.82;;;4.60;99.90;;;;;;5120024;27;20671;-76
2024/01/25 12:03:38;;;;;;;16.50;5.40;;;4.60;99.90;;;;;;5128187;27;20018;-76
2024/01/25 12:06:05;;;;;;;16.63;6.15;;;4.60;99.90;;;;;;5116340;27;20490;-76
2024/01/25 12:08:33;;;;;;;22.10;6.53;;;4.60;99.90;;;;;;5048137;27;20051;-76
2024/01/25 12:11:06;;;;;;;16.35;5.97;;;4.60;99.90;;;;;;5059750;27;20015;-77
2024/01/25 12:13:36;;;;;;;18.20;4.78;;;4.60;99.90;;;;;;5078971;27;20049;-76
2024/01/25 12:16:03;;;;;;;10.32;3.97;;;4.60;99.90;;;;;;5030497;28;20074;-76
2024/01/25 12:18:30;;;;;;;15.48;3.63;;;4.70;99.90;;;;;;5032170;28;20092;-74
2024/01/25 12:20:58;;;;;;;12.38;5.05;;;4.70;99.90;;;;;;5030264;28;20108;-74
2024/01/25 12:23:31;;;;;;;14.82;4.38;;;4.70;99.90;;;;;;5030686;28;20496;-74
2024/01/25 12:26:03;;;;;;;10.88;3.58;;;4.70;99.90;;;;;;5068056;27;20029;-76
2024/01/25 12:28:30;;;;;;;14.07;4.93;;;4.80;99.90;;;;;;5075799;27;20502;-76
2024/01/25 12:30:57;;;;;;;10.18;3.35;;;4.80;99.90;;;;;;5037132;27;20051;-76
2024/01/25 12:33:22;;;;;;;18.90;5.75;;;4.80;99.90;;;;;;5030369;28;20101;-81
2024/01/25 12:35:48;;;;;;;11.75;5.18;;;4.80;99.90;;;;;;5039738;27;20109;-80
2024/01/25 12:38:14;;;;;;;11.82;5.50;;;4.80;99.90;;;;;;5041335;27;20379;-74
2024/01/25 12:40:42;;;;;;;13.73;4.70;;;4.80;99.90;;;;;;5030383;28;20031;-75
2024/01/25 12:43:08;;;;;;;16.63;4.55;;;4.80;99.90;;;;;;5041425;27;20452;-81
2024/01/25 12:45:34;;;;;;;11.90;5.10;;;4.80;99.90;;;;;;5120764;27;20119;-74
2024/01/25 12:48:00;;;;;;;10.60;4.43;;;4.80;99.90;;;;;;5111747;27;20095;-74
2024/01/25 12:50:25;;;;;;;10.88;4.40;;;4.80;99.90;;;;;;5088937;27;20036;-74
2024/01/25 12:52:51;;;;;;;14.85;3.83;;;4.80;99.90;;;;;;5071119;27;20016;-80